createdAt,value
2019-05-19T00:01:27.561Z,21.70
2019-05-19T00:03:56.251Z,21.17
2019-05-19T00:06:24.890Z,21.13
2019-05-19T00:08:53.517Z,20.77
2019-05-19T00:11:22.246Z,19.87
2019-05-19T00:13:50.921Z,20.60
2019-05-19T00:16:19.634Z,21.27
2019-05-19T00:18:48.339Z,20.33
2019-05-19T00:21:24.688Z,19.90
2019-05-19T00:23:53.467Z,19.87
2019-05-19T00:26:22.127Z,19.90
2019-05-19T00:28:50.835Z,19.93
2019-05-19T00:31:19.556Z,19.77
2019-05-19T00:33:48.257Z,20.97
2019-05-19T00:36:19.509Z,20.77
2019-05-19T00:38:47.223Z,20.00
2019-05-19T00:41:15.854Z,19.33
2019-05-19T00:43:44.800Z,19.83
2019-05-19T00:46:13.515Z,19.63
2019-05-19T00:48:42.218Z,20.20
2019-05-19T00:51:10.925Z,19.80
2019-05-19T00:53:39.625Z,19.33
2019-05-19T00:56:08.451Z,19.10
2019-05-19T00:58:37.553Z,20.40
2019-05-19T01:01:06.227Z,19.77
2019-05-19T01:03:34.873Z,19.77
2019-05-19T01:06:03.563Z,19.63
2019-05-19T01:08:32.273Z,19.43
2019-05-19T01:11:00.934Z,20.03
2019-05-19T01:13:29.586Z,19.30
2019-05-19T01:15:58.271Z,19.63
2019-05-19T01:18:26.920Z,19.20
2019-05-19T01:20:55.626Z,19.80
2019-05-19T01:23:24.418Z,19.50
2019-05-19T01:25:53.129Z,20.00
2019-05-19T01:28:21.818Z,20.83
2019-05-19T01:30:50.463Z,20.50
2019-05-19T01:33:19.144Z,21.13
2019-05-19T01:35:47.895Z,20.83
2019-05-19T01:38:16.568Z,20.30
2019-05-19T01:40:45.292Z,20.13
2019-05-19T01:43:13.991Z,19.97
2019-05-19T01:45:42.630Z,20.00
2019-05-19T01:48:11.370Z,20.87
2019-05-19T01:50:40.073Z,20.73
2019-05-19T01:53:08.727Z,19.70
2019-05-19T01:55:37.430Z,19.70
2019-05-19T01:58:06.040Z,21.23
2019-05-19T02:00:34.739Z,19.87
2019-05-19T02:03:03.420Z,19.40
2019-05-19T02:05:32.125Z,19.37
2019-05-19T02:08:00.738Z,19.73
2019-05-19T02:10:29.450Z,20.07
2019-05-19T02:12:58.136Z,19.83
2019-05-19T02:15:26.850Z,20.10
2019-05-19T02:17:55.598Z,20.30
2019-05-19T02:20:32.931Z,20.87
2019-05-19T02:22:54.706Z,18.27
2019-05-19T02:25:23.414Z,19.13
2019-05-19T02:27:52.035Z,19.40
2019-05-19T02:30:21.020Z,19.17
2019-05-19T02:32:49.716Z,19.67
2019-05-19T02:35:18.428Z,18.43
2019-05-19T02:37:47.065Z,18.77
2019-05-19T02:40:16.154Z,19.27
2019-05-19T02:42:46.942Z,20.17
2019-05-19T02:45:15.765Z,20.63
2019-05-19T02:47:45.244Z,20.70
2019-05-19T02:50:14.127Z,19.40
2019-05-19T02:52:46.148Z,17.97
2019-05-19T02:55:15.271Z,19.70
2019-05-19T02:57:44.368Z,20.83
2019-05-19T03:00:13.449Z,20.40
2019-05-19T03:02:42.193Z,20.20
2019-05-19T03:05:10.960Z,19.97
2019-05-19T03:07:39.567Z,20.70
2019-05-19T03:10:08.631Z,19.27
2019-05-19T03:12:37.311Z,17.90
2019-05-19T03:15:06.628Z,20.70
2019-05-19T03:17:35.346Z,19.77
2019-05-19T03:20:07.956Z,19.87
2019-05-19T03:22:36.662Z,19.43
2019-05-19T03:25:07.966Z,19.97
2019-05-19T03:27:36.698Z,20.57
2019-05-19T03:30:25.841Z,19.50
2019-05-19T03:33:12.571Z,20.00
2019-05-19T03:35:41.381Z,18.57
2019-05-19T03:38:10.078Z,20.77
2019-05-19T03:40:38.653Z,19.47
2019-05-19T03:43:07.369Z,19.07
2019-05-19T03:45:35.991Z,19.20
2019-05-19T03:48:05.082Z,19.13
2019-05-19T03:50:33.890Z,18.83
2019-05-19T03:53:02.491Z,19.33
2019-05-19T03:55:31.234Z,19.50
2019-05-19T03:57:59.904Z,19.33
2019-05-19T04:00:28.545Z,18.27
2019-05-19T04:02:57.247Z,18.83
2019-05-19T04:05:25.958Z,19.00
2019-05-19T04:07:54.732Z,18.57
2019-05-19T04:10:23.465Z,18.23
2019-05-19T04:12:52.177Z,17.20
2019-05-19T04:15:20.919Z,17.07
2019-05-19T04:17:49.615Z,17.43
2019-05-19T04:20:18.615Z,17.30
2019-05-19T04:22:47.320Z,17.23
2019-05-19T04:25:16.003Z,17.47
2019-05-19T04:27:44.721Z,16.40
2019-05-19T04:30:15.351Z,17.13
2019-05-19T04:32:44.084Z,15.70
2019-05-19T04:35:12.938Z,16.10
2019-05-19T04:37:41.724Z,16.27
2019-05-19T04:40:10.611Z,16.50
2019-05-19T04:42:39.284Z,16.40
2019-05-19T04:45:07.983Z,16.37
2019-05-19T04:47:36.746Z,16.03
2019-05-19T04:50:07.083Z,15.60
2019-05-19T04:52:35.762Z,16.23
2019-05-19T04:55:05.268Z,15.23
2019-05-19T04:57:34.488Z,15.73
2019-05-19T05:00:03.538Z,15.53
2019-05-19T05:02:32.202Z,15.30
2019-05-19T05:05:00.858Z,15.70
2019-05-19T05:07:29.534Z,15.50
2019-05-19T05:09:58.248Z,15.30
2019-05-19T05:12:26.862Z,15.50
2019-05-19T05:14:55.562Z,16.73
2019-05-19T05:17:24.196Z,16.83
2019-05-19T05:19:52.871Z,16.63
2019-05-19T05:22:22.490Z,16.73
2019-05-19T05:24:51.415Z,16.67
2019-05-19T05:27:20.226Z,17.20
2019-05-19T05:29:48.910Z,16.97
2019-05-19T05:32:17.567Z,17.37
2019-05-19T05:34:46.246Z,17.63
2019-05-19T05:37:15.075Z,17.83
2019-05-19T05:39:43.800Z,18.00
2019-05-19T05:42:12.439Z,17.23
2019-05-19T05:44:41.110Z,16.60
2019-05-19T05:47:09.859Z,17.20
2019-05-19T05:49:38.558Z,17.10
2019-05-19T05:52:07.202Z,17.00
2019-05-19T05:54:35.951Z,16.87
2019-05-19T05:57:04.590Z,16.80
2019-05-19T05:59:33.295Z,18.03
2019-05-19T06:02:01.900Z,17.63
2019-05-19T06:04:30.604Z,17.70
2019-05-19T06:06:59.276Z,16.70
2019-05-19T06:09:28.034Z,16.80
2019-05-19T06:11:56.678Z,17.43
2019-05-19T06:14:25.329Z,16.70
2019-05-19T06:16:54.016Z,16.70
2019-05-19T06:19:22.717Z,17.10
2019-05-19T06:21:51.411Z,15.77
2019-05-19T06:24:20.058Z,16.77
2019-05-19T06:26:48.671Z,15.43
2019-05-19T06:29:17.309Z,15.50
2019-05-19T06:31:46.066Z,15.10
2019-05-19T06:34:14.764Z,14.00
2019-05-19T06:36:43.529Z,13.43
2019-05-19T06:39:15.141Z,14.70
2019-05-19T06:41:43.817Z,15.57
2019-05-19T06:44:12.456Z,16.03
2019-05-19T06:46:41.203Z,15.50
2019-05-19T06:49:09.855Z,15.40
2019-05-19T06:51:38.470Z,16.83
2019-05-19T06:54:07.179Z,17.07
2019-05-19T06:56:35.864Z,17.33
2019-05-19T06:59:04.556Z,16.60
2019-05-19T07:01:33.263Z,18.23
2019-05-19T07:04:01.868Z,19.07
2019-05-19T07:06:30.672Z,17.70
2019-05-19T07:08:59.372Z,19.23
2019-05-19T07:11:28.012Z,20.13
2019-05-19T07:13:56.735Z,20.03
2019-05-19T07:16:25.451Z,19.67
2019-05-19T07:18:54.206Z,22.80
2019-05-19T07:21:22.860Z,21.63
2019-05-19T07:23:51.597Z,20.77
2019-05-19T07:26:20.279Z,20.83
2019-05-19T07:28:48.914Z,23.10
2019-05-19T07:31:17.551Z,21.67
2019-05-19T07:33:46.313Z,21.33
2019-05-19T07:36:15.018Z,22.53
2019-05-19T07:38:43.705Z,24.60
2019-05-19T07:41:12.452Z,24.40
2019-05-19T07:43:41.101Z,23.00
2019-05-19T07:46:09.815Z,22.73
2019-05-19T07:48:38.521Z,24.90
2019-05-19T07:51:07.285Z,26.30
2019-05-19T07:53:43.141Z,27.10
2019-05-19T07:56:06.359Z,24.93
2019-05-19T07:58:35.051Z,24.53
2019-05-19T08:01:03.831Z,25.17
2019-05-19T08:03:32.526Z,24.80
2019-05-19T08:06:01.193Z,24.80
2019-05-19T08:08:29.885Z,24.23
2019-05-19T08:10:58.620Z,23.07
2019-05-19T08:13:27.302Z,24.33
2019-05-19T08:15:56.039Z,22.87
2019-05-19T08:18:25.014Z,24.97
2019-05-19T08:20:53.727Z,22.83
2019-05-19T08:23:22.338Z,22.17
2019-05-19T08:25:51.016Z,23.33
2019-05-19T08:28:19.733Z,24.67
2019-05-19T08:30:48.349Z,26.23
2019-05-19T08:33:17.136Z,26.07
2019-05-19T08:35:45.863Z,26.80
2019-05-19T08:38:14.535Z,25.10
2019-05-19T08:40:43.226Z,26.73
2019-05-19T08:43:11.908Z,26.17
2019-05-19T08:45:40.545Z,26.10
2019-05-19T08:48:09.296Z,26.33
2019-05-19T08:50:38.019Z,26.57
2019-05-19T08:53:06.691Z,25.27
2019-05-19T08:55:35.358Z,26.67
2019-05-19T08:58:04.420Z,26.93
2019-05-19T09:00:37.651Z,24.80
2019-05-19T09:03:03.662Z,25.17
2019-05-19T09:05:32.297Z,25.60
2019-05-19T09:08:01.016Z,25.93
2019-05-19T09:10:29.678Z,24.20
2019-05-19T09:12:58.390Z,24.77
2019-05-19T09:15:27.046Z,24.13
2019-05-19T09:17:55.772Z,21.63
2019-05-19T09:20:24.515Z,23.53
2019-05-19T09:22:53.159Z,21.93
2019-05-19T09:25:21.764Z,21.30
2019-05-19T09:27:50.404Z,20.63
2019-05-19T09:30:19.145Z,20.33
2019-05-19T09:32:47.752Z,20.73
2019-05-19T09:35:16.731Z,19.90
2019-05-19T09:37:45.377Z,20.10
2019-05-19T09:40:14.251Z,20.20
2019-05-19T09:42:42.871Z,18.00
2019-05-19T09:45:12.660Z,19.27
2019-05-19T09:47:41.739Z,16.67
2019-05-19T09:50:10.812Z,15.93
2019-05-19T09:52:39.527Z,15.97
2019-05-19T09:55:08.539Z,16.50
2019-05-19T09:57:44.055Z,15.43
2019-05-19T10:00:13.204Z,15.27
2019-05-19T10:02:41.907Z,16.50
2019-05-19T10:05:11.032Z,16.27
2019-05-19T10:07:39.660Z,15.23
2019-05-19T10:10:11.208Z,15.33
2019-05-19T10:12:39.934Z,15.43
2019-05-19T10:15:10.343Z,15.77
2019-05-19T10:17:39.056Z,14.90
2019-05-19T10:20:09.540Z,13.60
2019-05-19T10:22:38.234Z,12.83
2019-05-19T10:25:21.843Z,11.87
2019-05-19T10:27:40.138Z,12.50
2019-05-19T10:30:09.980Z,11.10
2019-05-19T10:32:38.607Z,10.90
2019-05-19T10:35:07.569Z,11.70
2019-05-19T10:37:36.265Z,11.60
2019-05-19T10:40:06.875Z,11.60
2019-05-19T10:42:35.808Z,10.70
2019-05-19T10:45:07.249Z,10.30
2019-05-19T10:47:35.962Z,10.00
2019-05-19T10:50:05.079Z,11.03
2019-05-19T10:52:33.695Z,11.37
2019-05-19T10:55:02.351Z,10.83
2019-05-19T10:57:30.978Z,10.30
2019-05-19T10:59:59.615Z,9.47
2019-05-19T11:02:28.333Z,9.83
2019-05-19T11:04:56.980Z,9.57
2019-05-19T11:07:25.682Z,8.93
2019-05-19T11:09:54.370Z,8.43
2019-05-19T11:12:22.978Z,8.70
2019-05-19T11:14:51.676Z,8.50
2019-05-19T11:17:20.321Z,7.83
2019-05-19T11:19:48.913Z,8.20
2019-05-19T11:22:17.553Z,8.10
2019-05-19T11:24:46.322Z,8.50
2019-05-19T11:27:14.972Z,8.20
2019-05-19T11:29:43.657Z,8.00
2019-05-19T11:32:12.324Z,7.60
2019-05-19T11:34:41.047Z,8.10
2019-05-19T11:37:09.651Z,7.37
2019-05-19T11:39:38.360Z,7.10
2019-05-19T11:42:07.100Z,6.80
2019-05-19T11:44:35.729Z,7.43
2019-05-19T11:47:04.431Z,7.17
2019-05-19T11:49:33.042Z,6.60
2019-05-19T11:52:01.765Z,6.03
2019-05-19T11:54:30.371Z,5.87
2019-05-19T11:56:59.055Z,5.43
2019-05-19T11:59:27.752Z,5.53
2019-05-19T12:01:56.542Z,5.50
2019-05-19T12:04:25.172Z,5.87
2019-05-19T12:06:53.913Z,5.60
2019-05-19T12:09:22.541Z,5.75
2019-05-19T12:11:51.206Z,5.42
2019-05-19T12:14:19.827Z,5.28
2019-05-19T12:16:48.614Z,5.53
2019-05-19T12:19:17.295Z,5.20
2019-05-19T12:21:45.999Z,5.12
2019-05-19T12:24:14.611Z,5.85
2019-05-19T12:26:43.237Z,5.62
2019-05-19T12:29:11.885Z,5.53
2019-05-19T12:31:40.636Z,5.08
2019-05-19T12:34:09.412Z,5.08
2019-05-19T12:36:38.084Z,5.05
2019-05-19T12:39:07.200Z,5.50
2019-05-19T12:41:35.941Z,5.60
2019-05-19T12:44:04.570Z,5.33
2019-05-19T12:46:33.203Z,5.15
2019-05-19T12:49:01.951Z,5.53
2019-05-19T12:51:30.601Z,5.50
2019-05-19T12:53:59.301Z,5.22
2019-05-19T12:56:39.164Z,5.58
2019-05-19T12:58:58.303Z,5.35
2019-05-19T13:01:27.198Z,4.87
2019-05-19T13:03:57.270Z,5.15
2019-05-19T13:06:25.913Z,4.80
2019-05-19T13:08:54.596Z,5.20
2019-05-19T13:11:23.315Z,4.50
2019-05-19T13:13:52.051Z,4.50
2019-05-19T13:16:20.695Z,4.10
2019-05-19T13:18:49.419Z,4.10
2019-05-19T13:21:18.130Z,4.15
2019-05-19T13:23:46.957Z,4.12
2019-05-19T13:26:15.611Z,3.30
2019-05-19T13:28:44.329Z,3.35
2019-05-19T13:31:12.972Z,3.67
2019-05-19T13:33:41.699Z,3.50
2019-05-19T13:36:10.357Z,3.35
2019-05-19T13:38:39.054Z,3.47
2019-05-19T13:41:07.771Z,3.37
2019-05-19T13:43:36.481Z,3.40
2019-05-19T13:46:05.106Z,3.95
2019-05-19T13:48:33.785Z,3.52
2019-05-19T13:51:02.488Z,3.30
2019-05-19T13:53:32.750Z,3.50
2019-05-19T13:56:01.467Z,3.70
2019-05-19T13:58:30.220Z,3.45
2019-05-19T14:00:58.981Z,3.90
2019-05-19T14:03:27.626Z,3.65
2019-05-19T14:05:56.280Z,3.58
2019-05-19T14:08:25.050Z,3.70
2019-05-19T14:10:54.538Z,3.77
2019-05-19T14:13:23.235Z,4.10
2019-05-19T14:15:52.141Z,4.15
2019-05-19T14:18:20.837Z,3.92
2019-05-19T14:20:49.760Z,4.30
2019-05-19T14:23:18.478Z,3.80
2019-05-19T14:25:47.133Z,4.00
2019-05-19T14:28:15.786Z,3.95
2019-05-19T14:30:44.415Z,3.80
2019-05-19T14:33:13.209Z,4.07
2019-05-19T14:35:41.968Z,4.73
2019-05-19T14:38:10.676Z,4.40
2019-05-19T14:40:39.309Z,4.40
2019-05-19T14:43:08.058Z,4.60
2019-05-19T14:45:36.714Z,4.50
2019-05-19T14:48:05.421Z,4.90
2019-05-19T14:50:34.111Z,4.90
2019-05-19T14:53:02.880Z,4.50
2019-05-19T14:55:31.647Z,4.40
2019-05-19T14:58:00.451Z,4.10
2019-05-19T15:00:29.097Z,4.13
2019-05-19T15:02:57.839Z,4.30
2019-05-19T15:05:26.525Z,4.20
2019-05-19T15:07:55.277Z,3.83
2019-05-19T15:10:23.959Z,4.30
2019-05-19T15:12:52.667Z,4.43
2019-05-19T15:15:21.317Z,4.60
2019-05-19T15:17:50.046Z,4.00
2019-05-19T15:20:18.644Z,4.20
2019-05-19T15:22:47.299Z,4.03
2019-05-19T15:25:16.638Z,4.30
2019-05-19T15:27:59.397Z,3.90
2019-05-19T15:30:15.855Z,3.97
2019-05-19T15:32:44.572Z,3.90
2019-05-19T15:35:13.760Z,4.23
2019-05-19T15:37:42.531Z,4.23
2019-05-19T15:40:11.419Z,4.10
2019-05-19T15:42:40.124Z,4.47
2019-05-19T15:45:09.238Z,4.13
2019-05-19T15:47:38.037Z,3.90
2019-05-19T15:50:08.547Z,4.30
2019-05-19T15:52:37.248Z,4.40
2019-05-19T15:55:06.467Z,4.00
2019-05-19T15:57:35.479Z,4.10
2019-05-19T16:00:06.934Z,3.90
2019-05-19T16:02:35.628Z,4.07
2019-05-19T16:05:06.597Z,4.00
2019-05-19T16:07:35.225Z,4.30
2019-05-19T16:10:07.127Z,3.97
2019-05-19T16:12:35.985Z,4.40
2019-05-19T16:15:07.154Z,4.80
2019-05-19T16:17:35.745Z,5.10
2019-05-19T16:20:07.445Z,4.57
2019-05-19T16:22:36.236Z,4.80
2019-05-19T16:25:09.673Z,4.40
2019-05-19T16:27:38.623Z,4.27
2019-05-19T16:30:09.578Z,4.27
2019-05-19T16:32:39.103Z,4.60
2019-05-19T16:35:11.043Z,4.83
2019-05-19T16:37:39.808Z,4.70
2019-05-19T16:40:12.397Z,4.47
2019-05-19T16:42:41.158Z,5.20
2019-05-19T16:45:12.867Z,4.83
2019-05-19T16:47:43.317Z,5.10
2019-05-19T16:50:16.593Z,6.40
2019-05-19T16:52:47.680Z,6.20
2019-05-19T16:55:26.844Z,5.97
2019-05-19T16:57:55.562Z,6.27
2019-05-19T17:00:24.710Z,6.27
2019-05-19T17:02:53.433Z,6.40
2019-05-19T17:05:22.046Z,6.00
2019-05-19T17:07:50.765Z,6.10
2019-05-19T17:10:19.648Z,6.00
2019-05-19T17:12:48.330Z,6.27
2019-05-19T17:15:18.712Z,6.73
2019-05-19T17:17:47.407Z,6.57
2019-05-19T17:20:17.088Z,7.00
2019-05-19T17:22:45.761Z,6.73
2019-05-19T17:25:14.666Z,7.07
2019-05-19T17:27:43.345Z,6.70
2019-05-19T17:30:13.099Z,6.40
2019-05-19T17:32:41.847Z,7.10
2019-05-19T17:35:11.468Z,7.20
2019-05-19T17:37:40.205Z,6.90
2019-05-19T17:40:09.460Z,6.80
2019-05-19T17:42:38.173Z,6.17
2019-05-19T17:45:07.425Z,7.80
2019-05-19T17:47:36.196Z,8.20
2019-05-19T17:50:05.424Z,8.07
2019-05-19T17:52:34.233Z,7.93
2019-05-19T17:55:04.543Z,7.93
2019-05-19T17:57:33.653Z,8.43
2019-05-19T18:00:03.726Z,8.40
2019-05-19T18:02:32.336Z,8.70
2019-05-19T18:05:00.971Z,8.53
2019-05-19T18:07:29.640Z,8.60
2019-05-19T18:09:58.276Z,8.97
2019-05-19T18:12:27.168Z,9.37
2019-05-19T18:14:55.856Z,9.03
2019-05-19T18:17:24.463Z,9.50
2019-05-19T18:19:53.235Z,9.53
2019-05-19T18:22:21.855Z,9.07
2019-05-19T18:24:50.628Z,9.17
2019-05-19T18:27:19.249Z,9.80
2019-05-19T18:29:47.910Z,9.43
2019-05-19T18:32:16.625Z,9.60
2019-05-19T18:34:45.332Z,10.10
2019-05-19T18:37:14.035Z,9.10
2019-05-19T18:39:42.704Z,9.67
2019-05-19T18:42:11.360Z,9.80
2019-05-19T18:44:40.026Z,10.13
2019-05-19T18:47:08.692Z,10.40
2019-05-19T18:49:37.414Z,11.13
2019-05-19T18:52:06.095Z,11.63
2019-05-19T18:54:34.884Z,12.40
2019-05-19T18:57:03.659Z,11.60
2019-05-19T18:59:46.458Z,11.50
2019-05-19T19:02:02.775Z,11.40
2019-05-19T19:04:31.517Z,11.47
2019-05-19T19:07:00.253Z,11.10
2019-05-19T19:09:28.892Z,11.70
2019-05-19T19:11:57.563Z,12.50
2019-05-19T19:14:27.719Z,12.10
2019-05-19T19:16:56.514Z,12.20
2019-05-19T19:19:25.246Z,12.83
2019-05-19T19:21:53.949Z,11.80
2019-05-19T19:24:22.638Z,12.53
2019-05-19T19:26:51.411Z,12.27
2019-05-19T19:29:20.031Z,12.73
2019-05-19T19:31:49.033Z,9.97
2019-05-19T19:34:18.465Z,12.00
2019-05-19T19:36:47.203Z,11.27
2019-05-19T19:39:15.862Z,12.10
2019-05-19T19:41:44.473Z,11.73
2019-05-19T19:44:13.171Z,11.90
2019-05-19T19:46:41.887Z,11.97
2019-05-19T19:49:10.531Z,11.87
2019-05-19T19:51:39.169Z,11.37
2019-05-19T19:54:09.695Z,10.60
2019-05-19T19:56:38.371Z,11.10
2019-05-19T19:59:07.093Z,11.00
2019-05-19T20:01:35.764Z,11.57
2019-05-19T20:04:05.991Z,10.93
2019-05-19T20:06:34.692Z,11.17
2019-05-19T20:09:03.799Z,11.37
2019-05-19T20:11:32.484Z,12.13
2019-05-19T20:14:01.347Z,11.90
2019-05-19T20:16:30.052Z,12.90
2019-05-19T20:18:58.713Z,11.80
2019-05-19T20:21:27.410Z,11.20
2019-05-19T20:23:56.020Z,12.67
2019-05-19T20:26:24.666Z,12.93
2019-05-19T20:28:53.279Z,11.13
2019-05-19T20:31:22.028Z,11.70
2019-05-19T20:33:50.735Z,11.33
2019-05-19T20:36:19.360Z,11.20
2019-05-19T20:38:48.080Z,13.43
2019-05-19T20:41:16.825Z,12.27
2019-05-19T20:43:45.611Z,13.13
2019-05-19T20:46:15.179Z,13.47
2019-05-19T20:48:43.816Z,13.67
2019-05-19T20:51:12.518Z,13.27
2019-05-19T20:53:41.212Z,12.60
2019-05-19T20:56:09.923Z,12.53
2019-05-19T20:58:38.610Z,13.60
2019-05-19T21:01:07.327Z,13.07
2019-05-19T21:03:36.025Z,13.53
2019-05-19T21:06:04.806Z,12.30
2019-05-19T21:08:33.479Z,11.97
2019-05-19T21:11:02.164Z,11.57
2019-05-19T21:13:30.873Z,12.20
2019-05-19T21:15:59.531Z,14.83
2019-05-19T21:18:28.229Z,14.23
2019-05-19T21:20:56.921Z,15.33
2019-05-19T21:23:25.635Z,15.57
2019-05-19T21:25:54.340Z,16.20
2019-05-19T21:28:22.974Z,18.47
2019-05-19T21:31:04.973Z,17.67
2019-05-19T21:33:21.985Z,16.30
2019-05-19T21:35:50.658Z,18.13
2019-05-19T21:38:19.354Z,15.90
2019-05-19T21:40:47.996Z,19.10
2019-05-19T21:43:16.637Z,18.97
2019-05-19T21:45:45.302Z,19.40
2019-05-19T21:48:14.096Z,20.57
2019-05-19T21:50:42.880Z,19.87
2019-05-19T21:53:11.638Z,21.77
2019-05-19T21:55:40.335Z,21.80
2019-05-19T21:58:09.006Z,23.10
2019-05-19T22:00:38.187Z,22.73
2019-05-19T22:03:06.915Z,22.63
2019-05-19T22:05:35.530Z,17.87
2019-05-19T22:08:05.827Z,17.00
2019-05-19T22:10:34.618Z,14.23
2019-05-19T22:13:03.337Z,12.10
2019-05-19T22:15:32.064Z,12.93
2019-05-19T22:18:00.766Z,15.30
2019-05-19T22:20:29.561Z,14.20
2019-05-19T22:22:58.193Z,12.97
2019-05-19T22:25:26.968Z,12.67
2019-05-19T22:27:55.678Z,13.83
2019-05-19T22:30:24.297Z,11.73
2019-05-19T22:32:52.938Z,11.07
2019-05-19T22:35:21.686Z,10.50
2019-05-19T22:37:50.391Z,9.97
2019-05-19T22:40:18.995Z,9.77
2019-05-19T22:42:47.731Z,10.77
2019-05-19T22:45:16.434Z,12.20
2019-05-19T22:47:45.143Z,11.13
2019-05-19T22:50:14.497Z,13.20
2019-05-19T22:52:46.003Z,10.70
2019-05-19T22:55:14.752Z,11.50
2019-05-19T22:57:43.532Z,11.73
2019-05-19T23:00:13.057Z,13.27
2019-05-19T23:02:41.780Z,12.57
2019-05-19T23:05:11.429Z,10.13
2019-05-19T23:07:40.127Z,10.10
2019-05-19T23:10:10.476Z,11.87
2019-05-19T23:12:39.171Z,11.87
2019-05-19T23:15:08.561Z,11.60
2019-05-19T23:17:37.356Z,10.37
2019-05-19T23:20:06.483Z,10.80
2019-05-19T23:22:35.082Z,11.47
2019-05-19T23:25:04.817Z,11.30
2019-05-19T23:27:33.487Z,10.70
2019-05-19T23:30:02.132Z,11.27
2019-05-19T23:32:30.833Z,10.70
2019-05-19T23:34:59.512Z,10.70
2019-05-19T23:37:28.319Z,11.20
2019-05-19T23:39:57.031Z,12.37
2019-05-19T23:42:25.698Z,11.40
2019-05-19T23:44:54.430Z,10.43
2019-05-19T23:47:23.066Z,9.87
2019-05-19T23:49:51.768Z,10.70
2019-05-19T23:52:20.452Z,9.87
2019-05-19T23:54:49.168Z,8.23
2019-05-19T23:57:17.862Z,10.03
2019-05-19T23:59:46.463Z,10.00
